Time;durP1;ratioP1;P1;durP2;ratioP2;P2;SDS_P1;SDS_P2;PMS_P1;PMS_P2;Temp;Humidity;BMP_temperature;BMP_pressure;BME280_temperature;BME280_humidity;BME280_pressure;Samples;Min_cycle;Max_cycle;Signal;HPM_P1;HPM_P2
2022/08/03 00:01:40;;;;;;;9.03;6.40;;;;;;;20.22;75.78;99121.28;1756641;81;21029;-46
2022/08/03 00:04:07;;;;;;;9.08;6.33;;;;;;;20.22;75.78;99125.41;1756952;81;21133;-46
2022/08/03 00:06:35;;;;;;;7.15;6.50;;;;;;;20.21;75.86;99118.95;1756708;81;21024;-46
2022/08/03 00:09:02;;;;;;;8.08;6.75;;;;;;;20.21;75.75;99118.35;1756889;81;21562;-46
2022/08/03 00:11:29;;;;;;;7.83;6.17;;;;;;;20.21;75.63;99121.10;1756831;81;21025;-46
2022/08/03 00:13:56;;;;;;;9.53;6.17;;;;;;;20.22;75.54;99119.13;1756825;81;21037;-46
2022/08/03 00:16:25;;;;;;;9.03;6.65;;;;;;;20.23;75.58;99117.33;1756667;81;21250;-46
2022/08/03 00:18:52;;;;;;;11.70;6.42;;;;;;;20.24;75.35;99119.45;1756646;81;21487;-46
2022/08/03 00:21:19;;;;;;;9.88;6.85;;;;;;;20.20;75.44;99118.77;1756921;81;21004;-46
2022/08/03 00:23:46;;;;;;;9.85;6.47;;;;;;;20.19;75.62;99115.84;1756907;81;20959;-46
2022/08/03 00:26:13;;;;;;;8.50;6.03;;;;;;;20.15;75.55;99114.55;1756989;81;21111;-46
2022/08/03 00:28:40;;;;;;;6.70;5.87;;;;;;;20.16;75.70;99120.23;1756863;81;21287;-46
2022/08/03 00:31:08;;;;;;;6.28;5.62;;;;;;;20.15;75.66;99120.66;1756854;81;21542;-46
2022/08/03 00:33:35;;;;;;;7.58;6.08;;;;;;;20.15;75.67;99120.06;1756653;81;21013;-46
2022/08/03 00:36:03;;;;;;;7.60;5.87;;;;;;;20.18;75.74;99118.45;1756994;81;21532;-46
2022/08/03 00:38:30;;;;;;;8.40;6.42;;;;;;;20.20;75.36;99120.14;1756563;81;21040;-46
2022/08/03 00:40:57;;;;;;;6.87;6.20;;;;;;;20.19;75.28;99117.22;1756651;81;21278;-46
2022/08/03 00:43:27;;;;;;;7.60;5.80;;;;;;;20.16;75.23;99113.36;1756821;81;20953;-46
2022/08/03 00:45:54;;;;;;;;;;;;;;;20.14;75.17;99108.87;1759529;81;21487;-46
2022/08/03 00:48:20;;;;;;;7.37;6.28;;;;;;;20.14;75.14;99116.37;1756763;81;20092;-46
2022/08/03 00:50:48;;;;;;;7.03;5.90;;;;;;;20.02;75.48;99115.07;1756708;81;21088;-46
2022/08/03 00:53:15;;;;;;;8.13;6.67;;;;;;;20.04;75.60;99118.78;1756581;81;21895;-46
2022/08/03 00:55:42;;;;;;;7.85;5.85;;;;;;;20.08;75.51;99120.84;1756731;81;20965;-46
2022/08/03 00:58:10;;;;;;;12.70;6.28;;;;;;;20.08;75.44;99120.84;1756666;81;21499;-46
2022/08/03 01:00:39;;;;;;;10.70;6.03;;;;;;;20.12;75.40;99122.91;1756832;81;21059;-46
2022/08/03 01:03:07;;;;;;;8.95;6.35;;;;;;;20.10;75.27;99119.20;1757046;81;20990;-46
2022/08/03 01:05:55;;;;;;;7.17;6.17;;;;;;;20.12;75.38;99122.91;1756846;81;21479;-46
2022/08/03 01:08:35;;;;;;;6.72;5.72;;;;;;;20.14;75.28;99121.26;1755867;81;20945;-46
2022/08/03 01:11:40;;;;;;;7.85;6.08;;;;;;;20.16;75.18;99120.23;1756744;81;20977;-46
2022/08/03 01:14:18;;;;;;;10.70;6.03;;;;;;;20.15;74.97;99120.06;1756666;81;21018;-46
2022/08/03 01:17:03;;;;;;;6.17;5.60;;;;;;;20.10;75.01;99117.82;1756775;81;21029;-46
2022/08/03 01:20:05;;;;;;;6.72;5.95;;;;;;;20.09;75.04;99117.64;1755632;81;21242;-46
2022/08/03 01:22:49;;;;;;;6.50;5.90;;;;;;;20.06;75.00;99118.51;1756812;81;21012;-46
2022/08/03 01:26:04;;;;;;;6.72;5.92;;;;;;;20.01;75.19;99123.15;1756874;81;21052;-46
2022/08/03 01:29:04;;;;;;;6.30;5.70;;;;;;;19.99;75.33;99111.81;1756841;81;20993;-46
2022/08/03 01:31:37;;;;;;;7.12;5.92;;;;;;;19.99;75.58;99119.29;1717328;83;21554;-46
2022/08/03 01:34:06;;;;;;;6.40;5.80;;;;;;;19.99;75.36;99111.81;1714738;83;21152;-46
2022/08/03 01:36:37;;;;;;;6.65;6.05;;;;;;;19.96;75.51;99109.30;1717514;83;20932;-46
2022/08/03 01:39:09;;;;;;;9.38;6.22;;;;;;;19.99;75.59;99111.03;1689999;83;21074;-46
2022/08/03 01:41:50;;;;;;;8.53;6.35;;;;;;;20.02;75.50;99110.17;1717502;83;20933;-46
2022/08/03 01:44:17;;;;;;;10.38;6.03;;;;;;;20.06;75.32;99114.98;1717683;83;21037;-46
2022/08/03 01:46:47;;;;;;;8.13;5.72;;;;;;;20.07;75.22;99111.81;1717750;83;21214;-46
2022/08/03 01:49:13;;;;;;;9.65;6.60;;;;;;;20.07;75.13;99109.05;1717673;83;21020;-46
2022/08/03 01:51:42;;;;;;;9.13;5.85;;;;;;;20.09;75.08;99112.14;1717504;83;21533;-46
2022/08/03 01:54:09;;;;;;;6.33;5.60;;;;;;;20.13;74.98;99111.48;1717425;83;20957;-46
2022/08/03 01:56:37;;;;;;;7.97;5.95;;;;;;;20.13;74.83;99114.23;1717408;83;20981;-46
2022/08/03 01:59:04;;;;;;;9.65;5.83;;;;;;;20.09;74.60;99117.64;1717407;83;21261;-46
2022/08/03 02:01:33;;;;;;;7.53;5.80;;;;;;;20.08;74.81;99126.34;1717280;83;21004;-46
2022/08/03 02:04:00;;;;;;;11.97;5.90;;;;;;;20.10;74.86;99120.58;1717325;83;20940;-46
2022/08/03 02:06:29;;;;;;;8.10;5.72;;;;;;;20.12;74.70;99122.91;1717464;83;21558;-46
2022/08/03 02:08:56;;;;;;;7.45;5.72;;;;;;;20.12;74.55;99118.18;1717680;83;21479;-46
2022/08/03 02:11:23;;;;;;;7.35;5.72;;;;;;;20.09;74.44;99116.27;1689268;83;23132;-46
2022/08/03 02:13:50;;;;;;;7.37;5.53;;;;;;;20.08;74.60;99118.09;1717365;83;20969;-46
2022/08/03 02:16:18;;;;;;;7.50;6.12;;;;;;;20.08;74.59;99116.11;1717494;83;21515;-46
2022/08/03 02:18:45;;;;;;;8.43;6.42;;;;;;;20.08;74.59;99116.11;1717358;83;21176;-46
2022/08/03 02:21:12;;;;;;;6.33;5.70;;;;;;;20.09;74.62;99125.15;1717495;83;21039;-46
2022/08/03 02:23:39;;;;;;;6.75;5.12;;;;;;;20.09;74.56;99131.41;1717362;83;21240;-46
2022/08/03 02:26:09;;;;;;;7.58;5.80;;;;;;;20.12;74.47;99122.91;1689388;83;21526;-46
2022/08/03 02:28:39;;;;;;;9.83;5.92;;;;;;;20.12;74.47;99125.06;1717590;83;20976;-46
2022/08/03 02:31:08;;;;;;;;;;;;;;;20.13;74.35;99124.46;1740258;81;20997;-46
2022/08/03 02:33:38;;;;;;;6.35;5.15;;;;;;;20.14;74.24;99119.88;1743941;81;20192;-46
2022/08/03 02:36:05;;;;;;;7.30;5.25;;;;;;;20.06;74.35;99124.02;1743765;81;21207;-46
2022/08/03 02:38:35;;;;;;;6.92;5.17;;;;;;;20.09;74.31;99121.02;1743633;81;21476;-46
2022/08/03 02:41:06;;;;;;;6.83;5.40;;;;;;;20.09;74.21;99122.40;1743563;82;21022;-46
2022/08/03 02:43:33;;;;;;;7.37;5.65;;;;;;;20.10;74.23;99123.92;1743678;82;21073;-46
2022/08/03 02:46:00;;;;;;;8.43;5.75;;;;;;;20.08;74.11;99124.37;1743404;82;21018;-46
2022/08/03 02:48:29;;;;;;;6.95;5.33;;;;;;;20.06;74.14;99120.48;1743504;82;21170;-46
2022/08/03 02:50:57;;;;;;;9.00;5.60;;;;;;;20.02;74.02;99123.92;1743499;82;21472;-46
2022/08/03 02:53:24;;;;;;;6.67;5.12;;;;;;;19.99;74.17;99122.82;1743400;82;20993;-46
2022/08/03 02:55:52;;;;;;;6.47;5.08;;;;;;;19.96;74.31;99130.53;1743414;82;21395;-46
2022/08/03 02:58:22;;;;;;;6.22;5.33;;;;;;;19.93;74.36;99131.41;1743483;82;21381;-46
2022/08/03 03:00:50;;;;;;;8.10;5.40;;;;;;;19.93;74.42;99129.42;1743553;82;21140;-46
2022/08/03 03:03:17;;;;;;;5.95;5.40;;;;;;;19.93;74.42;99131.41;1743469;82;20922;-46
2022/08/03 03:05:44;;;;;;;9.55;5.10;;;;;;;19.90;74.33;99128.11;1743417;82;20952;-46
2022/08/03 03:08:17;;;;;;;9.88;5.47;;;;;;;19.91;74.35;99129.66;1743571;81;21038;-46
2022/08/03 03:10:44;;;;;;;7.30;5.37;;;;;;;19.95;74.45;99131.13;1743648;82;21080;-46
2022/08/03 03:13:12;;;;;;;8.23;4.90;;;;;;;19.97;74.16;99134.84;1743713;81;22045;-46
2022/08/03 03:15:39;;;;;;;7.85;5.05;;;;;;;19.97;74.16;99130.71;1743535;82;20949;-46
2022/08/03 03:18:08;;;;;;;7.37;5.00;;;;;;;19.99;74.17;99135.20;1663614;84;21491;-46
2022/08/03 03:20:37;;;;;;;6.33;5.55;;;;;;;19.99;73.95;99135.20;1707881;84;20933;-46
2022/08/03 03:23:04;;;;;;;8.53;5.28;;;;;;;19.97;74.03;99134.84;1707811;84;21020;-46
2022/08/03 03:25:31;;;;;;;7.00;5.10;;;;;;;19.97;73.90;99133.47;1707561;84;21144;-46
2022/08/03 03:28:01;;;;;;;7.15;4.95;;;;;;;19.96;73.96;99134.06;1707439;84;20978;-46
2022/08/03 03:30:28;;;;;;;7.70;4.85;;;;;;;19.96;74.06;99134.66;1710517;83;21057;-46
2022/08/03 03:32:57;;;;;;;9.43;5.03;;;;;;;19.96;74.08;99144.30;1715244;83;21028;-46
2022/08/03 03:35:26;;;;;;;6.92;5.30;;;;;;;19.99;74.04;99142.08;1715454;83;21566;-46
2022/08/03 03:37:53;;;;;;;6.72;5.20;;;;;;;19.99;73.93;99137.95;1715521;83;21208;-46
2022/08/03 03:40:22;;;;;;;6.22;5.12;;;;;;;19.98;73.96;99148.78;1715099;83;21468;-46
2022/08/03 03:42:50;;;;;;;6.83;4.40;;;;;;;19.99;73.79;99148.96;1715472;83;20992;-45
2022/08/03 03:45:17;;;;;;;7.15;5.20;;;;;;;19.96;73.84;99156.08;1715354;83;20980;-46
2022/08/03 03:47:45;;;;;;;7.22;5.50;;;;;;;19.95;73.96;99154.52;1687365;83;21016;-46
2022/08/03 03:50:12;;;;;;;6.53;4.90;;;;;;;19.96;73.87;99163.55;1715523;83;21929;-46
2022/08/03 03:52:39;;;;;;;10.35;5.17;;;;;;;19.97;74.13;99167.86;1715332;83;21543;-46
2022/08/03 03:55:07;;;;;;;6.97;4.80;;;;;;;20.01;74.05;99160.89;1715595;83;20980;-46
2022/08/03 03:57:34;;;;;;;7.78;5.00;;;;;;;20.05;73.88;99163.73;1715506;83;21039;-46
2022/08/03 04:00:02;;;;;;;5.42;4.53;;;;;;;20.05;73.78;99162.36;1715383;83;21036;-46
2022/08/03 04:02:31;;;;;;;7.53;5.20;;;;;;;20.06;73.78;99162.55;1751310;82;21232;-46
2022/08/03 04:13:26;;;;;;;8.68;5.08;;;;;;;20.04;73.97;99159.46;1710460;83;21748;-46
2022/08/03 04:15:53;;;;;;;7.35;5.05;;;;;;;20.05;73.85;99162.96;1710451;83;21304;-46
2022/08/03 04:18:20;;;;;;;7.90;5.47;;;;;;;20.07;73.92;99164.09;1710468;83;21554;-46
2022/08/03 04:20:47;;;;;;;6.83;5.37;;;;;;;20.10;73.83;99161.86;1715349;83;21012;-46
2022/08/03 04:23:15;;;;;;;8.10;5.20;;;;;;;20.13;73.61;99164.37;1715257;83;21093;-46
2022/08/03 04:25:42;;;;;;;9.70;5.12;;;;;;;20.12;73.72;99160.84;1715260;83;21048;-46
2022/08/03 04:28:09;;;;;;;6.80;5.03;;;;;;;20.16;73.84;99163.50;1715508;83;21282;-46
2022/08/03 04:30:37;;;;;;;8.65;6.00;;;;;;;20.17;73.79;99163.08;1715317;83;21049;-46
2022/08/03 04:33:04;;;;;;;6.10;4.87;;;;;;;20.18;73.76;99172.89;1711005;83;21535;-46
2022/08/03 04:35:32;;;;;;;7.55;5.35;;;;;;;20.20;73.52;99171.84;1715500;83;21024;-46
2022/08/03 04:38:02;;;;;;;8.15;5.37;;;;;;;20.23;73.59;99175.14;1715519;83;21036;-46
2022/08/03 04:40:37;;;;;;;8.90;5.85;;;;;;;20.30;73.67;99183.25;1715617;83;25237;-46
2022/08/03 04:43:04;;;;;;;11.78;5.72;;;;;;;20.35;73.38;99181.95;1715274;83;21012;-46
2022/08/03 04:45:33;;;;;;;5.95;5.03;;;;;;;20.36;73.00;99182.91;1715283;83;21000;-46
2022/08/03 04:48:00;;;;;;;10.55;5.75;;;;;;;20.32;73.12;99188.33;1715208;83;21626;-46
2022/08/03 04:50:27;;;;;;;8.78;5.60;;;;;;;20.33;73.24;99190.64;1715404;83;21032;-46
2022/08/03 04:53:06;;;;;;;7.12;5.45;;;;;;;20.35;73.27;99187.47;1715731;83;21245;-46
2022/08/03 04:55:33;;;;;;;6.53;5.58;;;;;;;20.37;73.21;99181.72;1715405;83;20977;-46
2022/08/03 04:58:01;;;;;;;7.37;6.00;;;;;;;20.38;73.13;99191.50;1715375;83;21507;-46
2022/08/03 05:00:28;;;;;;;8.15;6.33;;;;;;;20.36;73.00;99184.30;1715583;83;21001;-46
2022/08/03 05:02:56;;;;;;;7.83;5.60;;;;;;;20.37;73.05;99185.84;1715450;83;20984;-46
2022/08/03 05:05:23;;;;;;;9.25;5.78;;;;;;;20.38;73.08;99188.75;1715340;83;21102;-46
2022/08/03 05:07:51;;;;;;;13.08;6.05;;;;;;;20.37;73.07;99181.72;1715486;83;20930;-46
2022/08/03 05:10:19;;;;;;;11.40;5.87;;;;;;;20.38;73.00;99188.00;1715605;83;21049;-46
2022/08/03 05:12:47;;;;;;;11.05;5.85;;;;;;;20.41;73.15;99184.98;1715570;83;20981;-46
2022/08/03 05:15:14;;;;;;;10.78;6.10;;;;;;;20.43;72.91;99192.22;1715625;83;21044;-46
2022/08/03 05:17:41;;;;;;;9.63;5.80;;;;;;;20.41;72.91;99190.48;1715590;83;21375;-46
2022/08/03 05:20:10;;;;;;;12.23;6.20;;;;;;;20.44;72.95;99196.50;1715310;83;20965;-46
2022/08/03 05:22:37;;;;;;;7.20;5.85;;;;;;;20.44;72.91;99191.77;1715481;83;21017;-46
2022/08/03 05:25:05;;;;;;;6.70;5.72;;;;;;;20.49;73.13;99195.98;1715442;83;21032;-46
2022/08/03 05:27:32;;;;;;;6.85;6.05;;;;;;;20.54;72.94;99200.98;1715383;83;21024;-46
2022/08/03 05:29:59;;;;;;;8.63;6.22;;;;;;;20.55;72.62;99204.69;1715535;83;21517;-46
2022/08/03 05:32:26;;;;;;;9.53;5.97;;;;;;;20.56;72.76;99205.47;1708190;83;20981;-46
2022/08/03 05:34:53;;;;;;;12.03;6.30;;;;;;;20.58;72.45;99201.66;1707700;82;21041;-46
2022/08/03 05:37:20;;;;;;;8.85;6.72;;;;;;;20.59;72.33;99205.97;1679382;85;20986;-46
2022/08/03 05:39:48;;;;;;;7.78;6.10;;;;;;;20.58;72.43;99208.55;1679315;85;21117;-46
2022/08/03 05:42:15;;;;;;;9.15;6.17;;;;;;;20.61;72.71;99204.36;1679349;85;21135;-46
2022/08/03 05:44:43;;;;;;;9.45;6.12;;;;;;;20.67;72.76;99200.48;1679104;85;21466;-46
2022/08/03 05:47:10;;;;;;;8.73;6.15;;;;;;;20.73;72.61;99195.38;1679450;85;21017;-46
2022/08/03 05:49:37;;;;;;;10.58;6.35;;;;;;;20.77;72.47;99199.42;1679405;85;21032;-46
2022/08/03 05:52:04;;;;;;;8.70;6.28;;;;;;;20.81;72.31;99200.13;1679555;85;21056;-46
2022/08/03 05:54:32;;;;;;;6.78;6.15;;;;;;;20.85;71.76;99202.19;1679529;85;21246;-46
2022/08/03 05:56:59;;;;;;;8.10;6.03;;;;;;;20.85;71.86;99203.56;1679281;85;21511;-46
2022/08/03 05:59:27;;;;;;;9.60;6.28;;;;;;;20.87;71.83;99208.63;1679286;85;20995;-46
2022/08/03 06:01:54;;;;;;;11.05;6.47;;;;;;;20.89;71.91;99203.47;1679112;85;21081;-46
2022/08/03 06:04:21;;;;;;;9.65;6.60;;;;;;;20.93;71.71;99203.55;1679217;85;20993;-46
2022/08/03 06:06:49;;;;;;;8.05;6.60;;;;;;;20.95;71.72;99208.03;1679300;85;21137;-46
2022/08/03 06:09:17;;;;;;;9.23;6.85;;;;;;;21.00;71.47;99204.76;1678917;85;21562;-46
2022/08/03 06:11:44;;;;;;;9.43;6.70;;;;;;;21.04;71.15;99213.70;1679239;85;21028;-46
2022/08/03 06:14:11;;;;;;;10.30;6.62;;;;;;;21.10;71.41;99216.11;1679274;85;20986;-46
2022/08/03 06:16:38;;;;;;;8.28;6.40;;;;;;;21.19;70.96;99214.91;1679290;85;21013;-46
2022/08/03 06:19:06;;;;;;;12.23;6.65;;;;;;;21.24;70.72;99216.37;1679282;85;21249;-46
2022/08/03 06:21:33;;;;;;;9.78;6.92;;;;;;;21.27;70.70;99217.47;1679267;85;20985;-46
2022/08/03 06:24:00;;;;;;;9.78;6.42;;;;;;;21.34;70.65;99220.05;1679374;85;20982;-46
2022/08/03 06:26:27;;;;;;;6.72;6.12;;;;;;;21.39;70.51;99218.91;1679567;85;21547;-46
2022/08/03 06:28:54;;;;;;;8.95;5.87;;;;;;;21.47;70.45;99213.36;1679464;85;21398;-46
2022/08/03 06:31:24;;;;;;;8.25;6.15;;;;;;;21.57;70.20;99216.44;1713343;83;21210;-46
2022/08/03 06:33:51;;;;;;;11.20;6.58;;;;;;;21.63;70.17;99215.30;1722366;83;20981;-46
2022/08/03 06:36:19;;;;;;;7.42;6.35;;;;;;;21.73;70.00;99212.84;1715617;82;20934;-46
2022/08/03 06:38:46;;;;;;;9.10;6.37;;;;;;;21.82;69.78;99229.53;1713851;82;21022;-46
2022/08/03 06:41:13;;;;;;;6.92;5.65;;;;;;;21.92;69.66;99223.53;1713743;83;21072;-46
2022/08/03 06:43:41;;;;;;;8.48;6.40;;;;;;;22.01;69.26;99231.36;1709209;82;21149;-46
2022/08/03 06:46:09;;;;;;;10.45;6.17;;;;;;;22.10;68.85;99236.22;1713745;82;21053;-46
2022/08/03 06:48:36;;;;;;;6.50;5.72;;;;;;;22.17;68.53;99236.63;1713730;82;20942;-46
2022/08/03 06:51:03;;;;;;;7.67;5.53;;;;;;;22.21;68.70;99236.69;1713758;83;21049;-46
2022/08/03 06:53:31;;;;;;;9.80;5.60;;;;;;;22.28;68.24;99231.53;1713725;83;21552;-46
2022/08/03 06:55:58;;;;;;;8.73;6.35;;;;;;;22.34;68.05;99243.59;1713865;83;21233;-46
2022/08/03 06:58:25;;;;;;;10.43;6.17;;;;;;;22.36;67.93;99238.41;1713769;82;21085;-46
2022/08/03 07:00:52;;;;;;;7.92;6.00;;;;;;;22.38;67.82;99237.34;1713652;83;21072;-46
2022/08/03 07:03:19;;;;;;;6.58;5.90;;;;;;;22.42;67.96;99237.39;1713814;83;21088;-46
2022/08/03 07:05:46;;;;;;;9.38;5.72;;;;;;;22.51;67.61;99239.52;1713864;83;21009;-46
2022/08/03 07:08:14;;;;;;;6.65;6.00;;;;;;;22.54;67.46;99244.14;1714039;82;21295;-46
2022/08/03 07:10:41;;;;;;;7.17;5.50;;;;;;;22.56;67.53;99238.19;1713667;82;21524;-46
2022/08/03 07:13:10;;;;;;;9.18;6.00;;;;;;;22.65;68.05;99245.97;1713875;83;20961;-46
2022/08/03 07:15:37;;;;;;;8.08;5.85;;;;;;;22.75;67.41;99242.73;1713818;83;21583;-46
2022/08/03 07:18:05;;;;;;;9.13;5.70;;;;;;;22.83;67.05;99245.41;1728061;82;21507;-46
2022/08/03 07:20:33;;;;;;;7.45;5.72;;;;;;;22.92;66.73;99246.89;1713765;83;21085;-46
2022/08/03 07:23:00;;;;;;;6.37;5.78;;;;;;;23.04;67.25;99243.34;1713681;83;21077;-46
2022/08/03 07:25:26;;;;;;;9.80;5.62;;;;;;;23.19;66.99;99242.25;1713775;82;21061;-46
2022/08/03 07:27:53;;;;;;;8.88;5.62;;;;;;;23.37;66.48;99247.93;1713749;82;21526;-46
2022/08/03 07:30:20;;;;;;;8.20;5.42;;;;;;;23.51;65.30;99247.45;1713718;82;20991;-46
2022/08/03 07:32:47;;;;;;;7.20;6.00;;;;;;;23.61;64.83;99249.08;1713858;82;21527;-46
2022/08/03 07:35:15;;;;;;;9.65;5.78;;;;;;;23.66;64.46;99249.11;1717646;82;20984;-47
2022/08/03 07:37:42;;;;;;;7.85;5.85;;;;;;;23.65;64.30;99248.33;1726608;83;21085;-47
2022/08/03 07:40:09;;;;;;;11.38;6.15;;;;;;;23.67;64.37;99243.09;1726680;82;20991;-46
2022/08/03 07:42:36;;;;;;;6.35;5.25;;;;;;;23.72;64.36;99239.75;1726639;82;21069;-46
2022/08/03 07:45:07;;;;;;;7.20;5.62;;;;;;;23.85;64.99;99247.23;1726736;83;21249;-46
2022/08/03 07:47:34;;;;;;;8.60;5.60;;;;;;;23.97;64.45;99243.59;1726736;82;21064;-46
2022/08/03 07:50:01;;;;;;;11.75;6.47;;;;;;;24.10;64.27;99249.85;1726886;83;20984;-46
2022/08/03 07:52:47;;;;;;;8.18;6.40;;;;;;;24.22;63.48;99254.55;1726889;83;21005;-46
2022/08/03 07:55:14;;;;;;;8.18;5.33;;;;;;;24.31;62.48;99249.05;1726884;82;21080;-46
2022/08/03 07:57:42;;;;;;;7.67;6.15;;;;;;;24.30;62.93;99246.75;1726843;82;21227;-46
2022/08/03 08:00:16;;;;;;;7.05;5.58;;;;;;;24.29;61.94;99250.74;1726773;83;20977;-46
2022/08/03 08:02:44;;;;;;;7.12;5.50;;;;;;;24.28;63.05;99249.96;1726658;83;21020;-46
2022/08/03 08:05:11;;;;;;;5.95;5.33;;;;;;;24.39;62.52;99255.09;1726589;83;20999;-47
2022/08/03 08:07:38;;;;;;;7.40;5.65;;;;;;;24.49;62.48;99240.83;1726583;83;21005;-46
2022/08/03 08:10:08;;;;;;;10.00;5.58;;;;;;;24.61;62.00;99249.63;1726756;82;21964;-46
2022/08/03 08:12:37;;;;;;;14.68;5.42;;;;;;;24.75;61.70;99246.90;1726768;82;21025;-46
2022/08/03 08:15:07;;;;;;;6.15;5.12;;;;;;;24.92;61.73;99237.73;1727046;83;22069;-46
2022/08/03 08:17:49;;;;;;;8.28;6.40;;;;;;;25.10;61.02;99240.53;1726704;83;21040;-46
2022/08/03 08:20:19;;;;;;;10.08;5.75;;;;;;;25.25;59.96;99243.48;1726512;82;21045;-46
2022/08/03 08:22:46;;;;;;;6.72;5.62;;;;;;;25.29;59.94;99244.09;1726492;83;21780;-46
2022/08/03 08:25:14;;;;;;;9.35;5.80;;;;;;;25.37;60.07;99247.48;1726611;83;21554;-46
2022/08/03 08:27:46;;;;;;;6.20;5.47;;;;;;;25.49;60.46;99236.85;1726728;83;21012;-46
2022/08/03 08:30:14;;;;;;;13.53;5.97;;;;;;;25.70;59.36;99242.73;1726598;83;21504;-46
2022/08/03 08:32:41;;;;;;;6.55;5.67;;;;;;;25.86;58.85;99236.20;1726533;83;21079;-47
2022/08/03 08:35:09;;;;;;;10.90;5.65;;;;;;;26.03;59.53;99248.38;1725357;82;21116;-47
2022/08/03 08:37:37;;;;;;;7.97;5.87;;;;;;;26.11;58.38;99242.02;1714022;83;21524;-47
2022/08/03 08:40:06;;;;;;;7.45;5.90;;;;;;;26.14;58.07;99242.46;1713642;83;21484;-47
2022/08/03 08:42:33;;;;;;;7.37;5.50;;;;;;;26.12;58.01;99247.73;1714138;83;21041;-46
2022/08/03 08:47:06;;;;;;;9.58;5.60;;;;;;;25.96;57.72;99248.06;1783247;79;22089;-46
2022/08/03 08:49:34;;;;;;;8.90;5.60;;;;;;;25.77;58.76;99253.51;1726509;81;20915;-46
2022/08/03 08:52:02;;;;;;;10.55;5.72;;;;;;;25.74;58.67;99248.28;1755758;81;22140;-46
2022/08/03 08:54:29;;;;;;;7.22;5.92;;;;;;;25.72;58.83;99253.52;1755721;81;20978;-46
2022/08/03 08:56:58;;;;;;;10.00;6.17;;;;;;;25.68;59.00;99253.52;1755572;81;21054;-46
2022/08/03 08:59:25;;;;;;;10.18;5.78;;;;;;;25.67;58.87;99254.75;1755942;81;20939;-46
2022/08/03 09:01:57;;;;;;;6.67;5.45;;;;;;;25.64;59.28;99266.80;1755720;81;20986;-46
2022/08/03 09:04:24;;;;;;;10.88;5.72;;;;;;;25.60;59.24;99264.80;1755561;81;21128;-46
2022/08/03 09:06:53;;;;;;;8.08;5.50;;;;;;;25.56;59.40;99269.13;1755526;81;21019;-46
2022/08/03 09:09:20;;;;;;;7.35;5.62;;;;;;;25.49;59.84;99268.00;1755455;81;20896;-46
2022/08/03 09:11:49;;;;;;;8.83;6.10;;;;;;;25.42;59.84;99262.13;1755391;81;21037;-46
2022/08/03 09:14:16;;;;;;;7.27;5.93;;;;;;;25.38;60.19;99268.45;1755874;81;21042;-46
2022/08/03 09:17:03;;;;;;;11.33;6.15;;;;;;;25.41;60.18;99267.55;1755367;81;23138;-46
2022/08/03 09:19:32;;;;;;;10.08;6.20;;;;;;;25.44;59.90;99264.45;1755579;81;21043;-46
2022/08/03 09:22:15;;;;;;;8.85;5.50;;;;;;;25.49;59.83;99263.22;1755970;81;21026;-46
2022/08/03 09:25:00;;;;;;;7.67;5.50;;;;;;;25.59;60.11;99261.24;1755499;81;21081;-46
2022/08/03 09:27:31;;;;;;;10.03;6.70;;;;;;;25.72;59.88;99249.34;1755389;81;21583;-46
2022/08/03 09:29:58;;;;;;;9.30;5.80;;;;;;;25.86;59.29;99256.27;1724741;81;21250;-47
2022/08/03 09:32:25;;;;;;;7.75;5.83;;;;;;;25.91;58.48;99254.25;1755523;81;21034;-46
2022/08/03 09:34:52;;;;;;;9.85;6.17;;;;;;;25.92;58.16;99257.96;1755419;81;21536;-46
2022/08/03 09:37:21;;;;;;;11.12;6.37;;;;;;;25.94;58.87;99253.34;1755540;81;21021;-46
2022/08/03 09:39:49;;;;;;;7.87;5.80;;;;;;;25.97;58.56;99252.39;1755713;81;21051;-46
2022/08/03 09:42:18;;;;;;;7.10;5.70;;;;;;;26.00;57.96;99252.09;1755325;81;23144;-46
2022/08/03 09:44:50;;;;;;;7.87;5.95;;;;;;;26.01;57.95;99255.78;1755488;81;21536;-46
2022/08/03 09:47:29;;;;;;;8.28;5.78;;;;;;;26.00;58.23;99250.06;1750640;81;21540;-46
2022/08/03 09:50:03;;;;;;;7.53;5.85;;;;;;;26.00;58.01;99251.45;1750703;82;21027;-46
2022/08/03 09:52:36;;;;;;;6.80;5.65;;;;;;;26.06;58.15;99248.20;1750743;82;21050;-46
2022/08/03 09:55:10;;;;;;;6.78;5.47;;;;;;;26.21;57.86;99228.28;1750901;82;21218;-47
2022/08/03 09:57:39;;;;;;;6.37;5.75;;;;;;;26.48;58.08;99240.53;1748995;82;20966;-46
2022/08/03 10:00:11;;;;;;;8.93;5.63;;;;;;;26.78;57.74;99249.17;1750394;82;20962;-46
2022/08/03 10:02:42;;;;;;;7.58;5.92;;;;;;;27.02;56.39;99249.98;1750142;82;20943;-46
2022/08/03 10:05:11;;;;;;;10.35;5.50;;;;;;;27.10;55.42;99249.02;1750305;82;21126;-46
2022/08/03 10:07:49;;;;;;;8.33;5.60;;;;;;;27.17;55.13;99242.46;1749823;82;21298;-46
2022/08/03 10:10:16;;;;;;;7.78;5.40;;;;;;;27.37;55.25;99244.63;1750061;82;20924;-46
2022/08/03 10:12:44;;;;;;;6.75;5.65;;;;;;;27.62;54.05;99244.76;1749813;82;21524;-46
2022/08/03 10:15:11;;;;;;;7.92;5.70;;;;;;;27.71;53.08;99246.06;1749756;82;21393;-46
2022/08/03 10:17:39;;;;;;;11.43;5.60;;;;;;;27.60;53.26;99250.80;1749797;82;21555;-47
2022/08/03 10:20:08;;;;;;;8.30;5.62;;;;;;;27.45;53.31;99240.88;1749982;82;23264;-46
2022/08/03 10:22:36;;;;;;;8.90;5.83;;;;;;;27.28;53.99;99242.54;1751330;82;21025;-46
2022/08/03 10:25:09;;;;;;;9.88;5.50;;;;;;;27.12;54.34;99240.33;1751674;82;21492;-47
2022/08/03 10:27:40;;;;;;;9.13;5.83;;;;;;;27.15;54.95;99251.92;1715349;83;21035;-46
2022/08/03 10:30:10;;;;;;;6.60;5.67;;;;;;;27.31;54.76;99253.48;1715353;83;21072;-47
2022/08/03 10:32:41;;;;;;;;;;;;;;;27.45;54.01;99245.79;1718254;83;21097;-47
2022/08/03 10:35:17;;;;;;;7.28;5.30;;;;;;;27.53;54.09;99247.63;1699551;84;20161;-46
2022/08/03 10:37:57;;;;;;;6.20;5.20;;;;;;;27.41;53.67;99245.21;1699999;84;21042;-46
2022/08/03 10:40:27;;;;;;;7.33;5.72;;;;;;;27.31;54.16;99239.56;1699561;84;21391;-46
2022/08/03 10:42:55;;;;;;;;;;;;;;;27.28;53.96;99246.72;1702348;84;21001;-46
2022/08/03 10:45:26;;;;;;;8.35;5.80;;;;;;;27.20;54.57;99240.14;1699547;84;21243;-47
2022/08/03 10:47:55;;;;;;;9.88;5.72;;;;;;;27.02;54.93;99244.41;1707362;84;21025;-46
2022/08/03 10:50:23;;;;;;;8.98;5.67;;;;;;;26.88;55.19;99237.40;1707968;83;21571;-47
2022/08/03 10:52:55;;;;;;;8.80;6.37;;;;;;;26.75;56.06;99245.34;1707718;84;21520;-47
2022/08/03 10:58:51;;;;;;;7.25;5.92;;;;;;;26.55;58.14;99262.42;1707619;83;21146;-47
2022/08/03 11:01:19;;;;;;;8.45;6.00;;;;;;;26.36;59.27;99244.44;1707710;83;21029;-47
2022/08/03 11:03:57;;;;;;;11.55;5.95;;;;;;;26.22;60.26;99242.95;1707835;84;21053;-47
2022/08/03 11:06:25;;;;;;;8.60;5.85;;;;;;;26.19;60.86;99239.05;1707560;84;20990;-46
2022/08/03 11:09:15;;;;;;;9.00;6.03;;;;;;;26.20;61.37;99247.54;1707723;84;21057;-46
2022/08/03 11:11:47;;;;;;;7.67;6.25;;;;;;;26.19;61.85;99254.33;1707480;83;21212;-46
2022/08/03 11:14:20;;;;;;;7.65;5.55;;;;;;;26.17;62.62;99251.27;1707447;84;21549;-46
2022/08/03 11:16:51;;;;;;;8.95;6.22;;;;;;;26.15;62.42;99260.68;1707551;84;21021;-46
2022/08/03 11:19:26;;;;;;;7.45;5.37;;;;;;;26.12;62.61;99269.96;1707396;84;21054;-47
2022/08/03 11:21:52;;;;;;;11.75;4.20;;;;;;;26.03;61.85;99269.98;1705705;84;21021;-47
2022/08/03 11:24:45;;;;;;;5.97;2.90;;;;;;;25.83;60.28;99264.15;1707384;83;21244;-47
2022/08/03 11:27:18;;;;;;;8.23;3.00;;;;;;;25.62;58.03;99253.98;1707271;84;20938;-46
2022/08/03 11:30:12;;;;;;;5.92;3.10;;;;;;;25.37;58.76;99247.48;1707326;84;21021;-47
2022/08/03 11:32:46;;;;;;;7.50;3.12;;;;;;;25.21;59.81;99236.70;1707486;84;21030;-47
2022/08/03 11:35:15;;;;;;;7.30;3.92;;;;;;;25.03;60.63;99244.98;1707382;84;21276;-47
2022/08/03 11:38:02;;;;;;;4.57;3.80;;;;;;;24.91;61.19;99255.60;1707950;84;21115;-46
2022/08/03 11:40:49;;;;;;;6.25;4.75;;;;;;;24.80;61.35;99262.16;1707491;84;21716;-46
2022/08/03 11:43:28;;;;;;;7.50;4.60;;;;;;;24.64;62.00;99267.37;1707448;84;20974;-47
2022/08/03 11:46:15;;;;;;;6.65;4.50;;;;;;;24.51;63.07;99253.59;1708025;83;21528;-47
2022/08/03 11:48:44;;;;;;;7.78;4.97;;;;;;;24.45;63.43;99257.41;1699821;83;21036;-47
2022/08/03 11:51:25;;;;;;;7.78;4.80;;;;;;;24.39;64.35;99243.41;1720722;83;21290;-46
2022/08/03 11:54:01;;;;;;;6.53;4.62;;;;;;;24.37;64.64;99237.53;1708544;84;21021;-46
2022/08/03 11:56:46;;;;;;;6.15;5.58;;;;;;;24.43;65.02;99238.48;1709178;84;21001;-47
2022/08/03 11:59:13;;;;;;;6.10;4.60;;;;;;;24.53;65.64;99252.54;1708486;84;21507;-46
2022/08/03 12:01:40;;;;;;;6.55;4.83;;;;;;;24.61;65.46;99248.86;1708863;84;21535;-47